Terminal Aerodrome Forecast
Issued by NWS Quad Cities IA IL

Home | Current Version | Previous Version | Text Only | Print | Product List | Glossary On
Versions: 1 2 3 4 5 6 7 8 9 10 11 12 13 14 15 16 17 18 19 20 21 22 23
000
FTUS43 KDVN 011000 AAD
TAFDBQ
TAF AMD
KDBQ 011022Z 0110/0206 VRB03KT 1/4SM FZFG BKN004
     FM011400 VRB03KT 4SM BR OVC022
     FM011500 23009KT P6SM BKN030
     FM012000 27012KT P6SM SCT030 BKN120
     FM020200 29007KT P6SM SKC=

USA.gov is the U.S. government's official web portal to all federal, state and local government web resources and services.